Swansea, Illinois
Current Conditions -  °F | °C
As of 10:05 AM on Sunday 25 Jan 2015 (Local Time) from KBLV Reporting Station
Overcast Overcast  
Wind Chill: 43°   Ceiling: 1500
Heat Index: 43°   Visibility: 10mi
Dew Point: 41°   Wind: 0mph
Humidity: 93%   Direction: NA
Pressure: 29.58"   Gusts: NA
Location:  38.5093°N, 89.8955°W
Report Text: KBLV 251605Z AUTO 00000KT 10SM OVC015 06/05 A2958 RMK AO2
Loading
Personal Weather Stations






























Interactive Weather Map New forecast layout! Learn more

10-Day Weather Forecast

Advertisements
Track Severe Weather on mobile